Time;durP1;ratioP1;P1;durP2;ratioP2;P2;SDS_P1;SDS_P2;PMS_P1;PMS_P2;Temp;Humidity;BMP_temperature;BMP_pressure;BME280_temperature;BME280_humidity;BME280_pressure;Samples;Min_cycle;Max_cycle;Signal;HPM_P1;HPM_P2
2023/11/27 00:01:20;;;;;;;81.68;72.28;;;;;;;;;;4995465;28;25113;-72
2023/11/27 00:03:46;;;;;;;77.60;69.90;;;;;;;;;;4994096;28;25041;-70
2023/11/27 00:06:12;;;;;;;76.07;68.22;;;;;;;;;;4991968;28;25063;-72
2023/11/27 00:08:38;;;;;;;74.57;66.95;;;;;;;;;;5000916;28;25130;-71
2023/11/27 00:11:04;;;;;;;70.95;64.43;;;;;;;;;;5008884;28;25058;-73
2023/11/27 00:13:30;;;;;;;71.13;64.22;;;;;;;;;;4995428;28;25062;-72
2023/11/27 00:15:56;;;;;;;71.85;64.50;;;;;;;;;;4995188;28;25077;-71
2023/11/27 00:18:22;;;;;;;74.22;67.10;;;;;;;;;;4993919;28;25075;-73
2023/11/27 00:20:48;;;;;;;70.30;63.63;;;;;;;;;;4994923;28;25066;-71
2023/11/27 00:23:14;;;;;;;75.20;68.20;;;;;;;;;;4996557;28;25075;-72
2023/11/27 00:25:40;;;;;;;72.90;65.75;;;;;;;;;;4999679;28;25050;-71
2023/11/27 00:28:07;;;;;;;72.07;65.18;;;;;;;;;;4994629;28;25110;-72
2023/11/27 00:30:34;;;;;;;73.32;66.65;;;;;;;;;;5000466;28;25059;-72
2023/11/27 00:33:00;;;;;;;70.70;64.22;;;;;;;;;;4994034;28;25134;-71
2023/11/27 00:35:26;;;;;;;71.05;63.58;;;;;;;;;;4994795;28;25068;-71
2023/11/27 00:37:53;;;;;;;72.65;65.88;;;;;;;;;;4997183;28;25061;-71
2023/11/27 00:40:19;;;;;;;76.97;69.40;;;;;;;;;;5005763;28;25072;-71
2023/11/27 00:42:45;;;;;;;78.85;71.75;;;;;;;;;;4995139;28;25055;-72
2023/11/27 00:45:11;;;;;;;78.00;71.20;;;;;;;;;;4998629;28;25079;-72
2023/11/27 00:47:37;;;;;;;81.53;74.88;;;;;;;;;;4996526;28;25054;-71
2023/11/27 00:50:03;;;;;;;84.85;77.85;;;;;;;;;;5002303;28;25165;-72
2023/11/27 00:52:29;;;;;;;83.25;76.28;;;;;;;;;;5002588;28;25077;-72
2023/11/27 00:54:55;;;;;;;81.38;74.38;;;;;;;;;;5002451;28;25092;-73
2023/11/27 00:57:21;;;;;;;82.72;75.07;;;;;;;;;;5005599;28;25080;-71
2023/11/27 00:59:48;;;;;;;83.60;76.82;;;;;;;;;;5008202;28;25061;-71
2023/11/27 01:02:14;;;;;;;85.45;78.32;;;;;;;;;;4998009;28;25056;-72
2023/11/27 01:04:42;;;;;;;83.80;76.35;;;;;;;;;;5004871;28;25056;-72
2023/11/27 01:07:09;;;;;;;81.28;74.55;;;;;;;;;;5007547;28;25089;-71
2023/11/27 01:09:37;;;;;;;80.20;73.05;;;;;;;;;;5008876;28;25047;-71
2023/11/27 01:12:03;;;;;;;84.13;76.57;;;;;;;;;;5001560;28;25056;-72
2023/11/27 01:14:29;;;;;;;81.38;74.07;;;;;;;;;;5002918;28;25076;-73
2023/11/27 01:16:56;;;;;;;80.30;73.70;;;;;;;;;;4998470;28;25116;-71
2023/11/27 01:19:22;;;;;;;78.63;71.32;;;;;;;;;;4995417;28;25056;-71
2023/11/27 01:21:48;;;;;;;80.80;74.22;;;;;;;;;;5000579;28;25069;-71
2023/11/27 01:24:15;;;;;;;83.43;76.45;;;;;;;;;;4997662;28;25095;-71
2023/11/27 01:26:41;;;;;;;49.28;44.40;;;;;;;;;;4993741;28;25098;-72
2023/11/27 01:29:07;;;;;;;48.15;43.42;;;;;;;;;;4999881;28;25099;-73
2023/11/27 01:31:33;;;;;;;56.13;50.53;;;;;;;;;;5007425;28;25082;-71
2023/11/27 01:33:59;;;;;;;57.90;52.88;;;;;;;;;;5000625;28;25108;-71
2023/11/27 01:36:25;;;;;;;57.17;51.42;;;;;;;;;;5003130;28;25122;-72
2023/11/27 01:38:51;;;;;;;61.85;55.88;;;;;;;;;;4998341;28;25063;-74
2023/11/27 01:41:17;;;;;;;64.57;58.90;;;;;;;;;;4996763;28;25521;-71
2023/11/27 01:43:45;;;;;;;66.53;60.60;;;;;;;;;;4992349;28;25098;-72
2023/11/27 01:46:11;;;;;;;67.60;61.60;;;;;;;;;;4996557;28;25106;-73
2023/11/27 01:48:36;;;;;;;71.00;64.72;;;;;;;;;;4993366;28;25072;-72
2023/11/27 01:51:03;;;;;;;70.72;64.35;;;;;;;;;;4991804;28;25091;-71
2023/11/27 01:53:29;;;;;;;71.00;64.65;;;;;;;;;;4995477;28;25061;-74
2023/11/27 01:55:55;;;;;;;71.88;64.90;;;;;;;;;;4994435;28;25089;-72
2023/11/27 01:58:21;;;;;;;71.25;65.15;;;;;;;;;;4993977;28;25081;-72
2023/11/27 02:00:47;;;;;;;71.80;65.43;;;;;;;;;;4993297;28;25073;-72
2023/11/27 02:03:14;;;;;;;72.30;65.97;;;;;;;;;;4989840;28;25089;-73
2023/11/27 02:05:40;;;;;;;73.10;66.50;;;;;;;;;;4994130;28;25480;-73
2023/11/27 02:08:06;;;;;;;72.72;66.05;;;;;;;;;;4995258;28;25071;-72
2023/11/27 02:10:32;;;;;;;69.45;63.03;;;;;;;;;;4995553;28;25074;-74
2023/11/27 02:12:58;;;;;;;74.03;66.75;;;;;;;;;;4984899;28;25091;-73
2023/11/27 02:15:23;;;;;;;72.15;65.88;;;;;;;;;;4990690;28;25067;-73
2023/11/27 02:17:50;;;;;;;68.07;61.95;;;;;;;;;;4998816;28;25076;-72
2023/11/27 02:20:16;;;;;;;69.65;63.50;;;;;;;;;;4997894;28;25102;-72
2023/11/27 02:22:42;;;;;;;71.43;64.85;;;;;;;;;;4993321;28;25069;-71
2023/11/27 02:25:08;;;;;;;72.15;64.95;;;;;;;;;;4995168;28;25082;-72
2023/11/27 02:27:34;;;;;;;69.93;63.15;;;;;;;;;;4992072;28;25052;-72
2023/11/27 02:30:00;;;;;;;70.35;63.63;;;;;;;;;;4994625;28;25070;-72
2023/11/27 02:32:28;;;;;;;58.25;52.85;;;;;;;;;;4998209;28;25056;-73
2023/11/27 02:34:54;;;;;;;66.43;60.17;;;;;;;;;;4996708;28;25083;-72
2023/11/27 02:37:20;;;;;;;68.15;61.95;;;;;;;;;;5001435;28;25081;-74
2023/11/27 02:39:46;;;;;;;62.80;57.40;;;;;;;;;;5019648;28;25065;-72
2023/11/27 02:42:12;;;;;;;66.38;60.53;;;;;;;;;;4997591;28;25097;-74
2023/11/27 02:44:38;;;;;;;64.13;58.60;;;;;;;;;;4995337;28;25098;-74
2023/11/27 02:47:05;;;;;;;66.53;60.63;;;;;;;;;;4998554;28;25110;-72
2023/11/27 02:49:31;;;;;;;61.72;56.03;;;;;;;;;;4993271;28;25066;-73
2023/11/27 02:51:57;;;;;;;69.40;63.03;;;;;;;;;;4987010;28;25043;-74
2023/11/27 02:54:23;;;;;;;67.25;61.15;;;;;;;;;;4985405;28;25126;-75
2023/11/27 02:56:49;;;;;;;65.45;58.88;;;;;;;;;;4985714;28;25091;-73
2023/11/27 02:59:15;;;;;;;66.38;60.28;;;;;;;;;;4981855;28;25054;-73
2023/11/27 03:01:41;;;;;;;63.05;57.10;;;;;;;;;;4988841;28;25069;-74
2023/11/27 03:04:08;;;;;;;67.07;60.33;;;;;;;;;;4984186;28;25080;-73
2023/11/27 03:06:34;;;;;;;66.07;59.42;;;;;;;;;;4982787;28;25164;-75
2023/11/27 03:09:00;;;;;;;69.68;62.60;;;;;;;;;;4982994;28;25070;-73
2023/11/27 03:11:26;;;;;;;65.45;59.83;;;;;;;;;;4985853;28;25066;-74
2023/11/27 03:13:52;;;;;;;67.65;61.00;;;;;;;;;;4985298;28;25086;-74
2023/11/27 03:16:18;;;;;;;68.43;62.05;;;;;;;;;;4985821;28;25056;-73
2023/11/27 03:18:44;;;;;;;65.97;59.60;;;;;;;;;;4988110;28;25051;-74
2023/11/27 03:21:19;;;;;;;65.35;59.25;;;;;;;;;;4986714;28;25069;-73
2023/11/27 03:23:46;;;;;;;62.53;56.22;;;;;;;;;;4988098;28;25069;-73
2023/11/27 03:26:12;;;;;;;62.83;56.72;;;;;;;;;;4989664;28;25080;-74
2023/11/27 03:28:39;;;;;;;63.63;57.25;;;;;;;;;;4992742;28;25073;-74
2023/11/27 03:31:05;;;;;;;60.85;54.97;;;;;;;;;;4987283;28;25084;-74
2023/11/27 03:33:31;;;;;;;56.75;51.65;;;;;;;;;;4986256;28;25105;-76
2023/11/27 03:35:57;;;;;;;59.08;53.33;;;;;;;;;;5002010;28;25089;-74
2023/11/27 03:38:23;;;;;;;55.55;50.17;;;;;;;;;;4989848;28;25097;-75
2023/11/27 03:40:49;;;;;;;54.03;48.95;;;;;;;;;;4987868;28;25105;-75
2023/11/27 03:43:15;;;;;;;51.60;46.70;;;;;;;;;;4985492;28;25059;-75
2023/11/27 03:45:41;;;;;;;52.70;47.60;;;;;;;;;;4981471;28;25078;-76
2023/11/27 03:48:07;;;;;;;51.28;46.40;;;;;;;;;;4985057;28;25079;-76
2023/11/27 03:50:33;;;;;;;53.08;47.92;;;;;;;;;;4986762;28;25055;-75
2023/11/27 03:52:59;;;;;;;48.60;44.30;;;;;;;;;;4985333;28;25067;-75
2023/11/27 03:55:25;;;;;;;49.15;44.67;;;;;;;;;;4985969;28;25078;-75
2023/11/27 03:57:51;;;;;;;48.60;44.05;;;;;;;;;;4985575;28;25051;-76
2023/11/27 04:00:18;;;;;;;50.78;46.10;;;;;;;;;;4984728;28;25058;-76
2023/11/27 04:02:44;;;;;;;55.28;49.78;;;;;;;;;;4985484;28;25068;-76
2023/11/27 04:05:10;;;;;;;47.90;43.55;;;;;;;;;;4987837;28;25134;-77
2023/11/27 04:07:36;;;;;;;48.85;44.42;;;;;;;;;;4985009;28;25069;-77
2023/11/27 04:10:02;;;;;;;47.72;43.80;;;;;;;;;;4996292;28;25068;-76
2023/11/27 04:12:32;;;;;;;50.35;46.00;;;;;;;;;;4992543;28;25088;-76
2023/11/27 04:14:58;;;;;;;47.47;43.47;;;;;;;;;;4983125;28;25145;-75
2023/11/27 04:17:24;;;;;;;45.85;42.03;;;;;;;;;;4986269;28;25051;-76
2023/11/27 04:19:50;;;;;;;48.40;44.17;;;;;;;;;;4984395;28;25136;-77
2023/11/27 04:22:16;;;;;;;43.10;39.45;;;;;;;;;;4985304;28;25106;-77
2023/11/27 04:24:43;;;;;;;45.92;41.88;;;;;;;;;;4985183;28;25069;-76
2023/11/27 04:27:09;;;;;;;43.50;39.38;;;;;;;;;;4989747;28;25135;-77
2023/11/27 04:29:35;;;;;;;39.38;36.03;;;;;;;;;;4988638;28;25111;-77
2023/11/27 04:32:01;;;;;;;43.28;39.63;;;;;;;;;;4995751;28;25070;-76
2023/11/27 04:34:27;;;;;;;42.90;39.38;;;;;;;;;;4988107;28;25122;-76
2023/11/27 04:36:53;;;;;;;41.55;38.15;;;;;;;;;;4979933;28;25070;-76
2023/11/27 04:39:19;;;;;;;41.78;38.25;;;;;;;;;;4995032;28;25067;-76
2023/11/27 04:41:45;;;;;;;40.15;36.60;;;;;;;;;;4984063;28;25070;-78
2023/11/27 04:44:11;;;;;;;40.38;37.38;;;;;;;;;;4985601;28;25088;-77
2023/11/27 04:46:37;;;;;;;39.60;36.40;;;;;;;;;;4984675;28;25101;-76
2023/11/27 04:49:03;;;;;;;38.30;35.42;;;;;;;;;;4985033;28;25061;-76
2023/11/27 04:51:29;;;;;;;40.05;36.95;;;;;;;;;;4984494;28;25098;-76
2023/11/27 04:53:55;;;;;;;39.25;36.05;;;;;;;;;;4982248;28;25077;-77
2023/11/27 04:56:21;;;;;;;40.38;37.00;;;;;;;;;;4975339;28;25098;-77
2023/11/27 04:58:47;;;;;;;38.15;34.95;;;;;;;;;;4986677;28;25062;-77
2023/11/27 05:01:13;;;;;;;38.08;35.10;;;;;;;;;;4990204;28;25153;-78
2023/11/27 05:03:39;;;;;;;38.03;34.90;;;;;;;;;;4987012;28;25114;-77
2023/11/27 05:06:05;;;;;;;38.83;35.72;;;;;;;;;;4983384;28;25064;-76
2023/11/27 05:08:31;;;;;;;31.67;29.17;;;;;;;;;;4982225;28;25084;-77
2023/11/27 05:10:57;;;;;;;32.47;29.88;;;;;;;;;;4987832;28;25068;-77
2023/11/27 05:13:23;;;;;;;31.73;29.33;;;;;;;;;;4988510;28;25057;-79
2023/11/27 05:15:49;;;;;;;34.33;31.58;;;;;;;;;;4989772;28;25077;-78
2023/11/27 05:18:15;;;;;;;32.20;29.70;;;;;;;;;;4989386;28;25052;-75
2023/11/27 05:20:42;;;;;;;34.30;31.63;;;;;;;;;;4991703;28;25060;-80
2023/11/27 05:23:08;;;;;;;34.40;31.48;;;;;;;;;;4984230;28;25057;-77
2023/11/27 05:25:34;;;;;;;35.55;32.95;;;;;;;;;;4990598;28;25069;-76
2023/11/27 05:28:00;;;;;;;37.75;34.65;;;;;;;;;;4987641;28;25068;-76
2023/11/27 05:30:26;;;;;;;37.67;34.85;;;;;;;;;;4987909;28;25102;-76
2023/11/27 05:32:52;;;;;;;40.20;36.90;;;;;;;;;;4983577;28;25004;-76
2023/11/27 05:35:18;;;;;;;40.85;36.75;;;;;;;;;;4987564;28;25055;-75
2023/11/27 05:37:44;;;;;;;38.63;35.60;;;;;;;;;;4984980;28;25061;-78
2023/11/27 05:40:10;;;;;;;42.92;39.10;;;;;;;;;;4988738;28;25068;-76
2023/11/27 05:42:39;;;;;;;39.15;36.03;;;;;;;;;;4985504;28;25078;-74
2023/11/27 05:45:10;;;;;;;36.63;33.67;;;;;;;;;;4984450;28;25073;-76
2023/11/27 05:47:39;;;;;;;37.22;34.28;;;;;;;;;;4987927;28;25097;-77
2023/11/27 05:50:05;;;;;;;36.47;33.35;;;;;;;;;;4988003;28;25057;-76
2023/11/27 05:52:32;;;;;;;40.60;37.08;;;;;;;;;;4985993;28;25073;-77
2023/11/27 05:54:58;;;;;;;38.08;34.72;;;;;;;;;;4987024;28;25055;-76
2023/11/27 05:57:24;;;;;;;40.17;36.78;;;;;;;;;;4987559;28;25147;-75
2023/11/27 05:59:51;;;;;;;41.22;37.75;;;;;;;;;;4987441;28;25106;-76
2023/11/27 06:02:17;;;;;;;39.83;36.55;;;;;;;;;;4986022;28;25110;-75
2023/11/27 06:04:45;;;;;;;41.90;38.47;;;;;;;;;;4984734;28;25083;-76
2023/11/27 06:07:11;;;;;;;43.30;39.55;;;;;;;;;;4987798;28;25046;-74
2023/11/27 06:09:37;;;;;;;42.53;38.95;;;;;;;;;;4986872;28;25058;-75
2023/11/27 06:12:03;;;;;;;43.47;39.75;;;;;;;;;;4988992;28;25082;-75
2023/11/27 06:14:29;;;;;;;44.00;39.85;;;;;;;;;;4992126;28;25086;-76
2023/11/27 06:16:56;;;;;;;45.55;41.30;;;;;;;;;;4989093;28;25069;-76
2023/11/27 06:19:22;;;;;;;46.35;42.28;;;;;;;;;;4988190;28;25049;-77
2023/11/27 06:21:48;;;;;;;42.25;38.58;;;;;;;;;;4985232;28;25135;-76
2023/11/27 06:24:14;;;;;;;44.53;40.55;;;;;;;;;;4986888;28;25056;-77
2023/11/27 06:26:40;;;;;;;42.58;38.80;;;;;;;;;;4986859;28;25063;-76
2023/11/27 06:29:06;;;;;;;43.67;39.80;;;;;;;;;;4987593;28;25078;-77
2023/11/27 06:31:32;;;;;;;46.42;41.97;;;;;;;;;;4981244;28;25126;-76
2023/11/27 06:33:58;;;;;;;48.92;43.60;;;;;;;;;;4981948;28;25099;-76
2023/11/27 06:36:24;;;;;;;43.22;39.22;;;;;;;;;;4984703;28;25101;-78
2023/11/27 06:38:50;;;;;;;45.15;40.60;;;;;;;;;;4979955;28;25073;-77
2023/11/27 06:41:16;;;;;;;42.38;38.30;;;;;;;;;;4982884;28;25133;-78
2023/11/27 06:43:42;;;;;;;40.75;36.85;;;;;;;;;;4983962;28;25074;-79
2023/11/27 06:46:11;;;;;;;44.53;40.45;;;;;;;;;;4979359;28;25065;-78
2023/11/27 06:48:38;;;;;;;48.20;43.67;;;;;;;;;;4984605;28;25070;-80
2023/11/27 06:51:04;;;;;;;48.97;44.20;;;;;;;;;;4982727;28;25079;-79
2023/11/27 06:53:30;;;;;;;47.00;42.63;;;;;;;;;;4985278;28;25090;-78
2023/11/27 06:55:55;;;;;;;51.22;46.05;;;;;;;;;;4985272;28;25161;-78
2023/11/27 06:58:21;;;;;;;50.65;41.53;;;;;;;;;;4983934;28;25047;-78
2023/11/27 07:00:47;;;;;;;47.63;42.83;;;;;;;;;;4978781;28;25081;-77
2023/11/27 07:03:13;;;;;;;52.95;47.55;;;;;;;;;;4985908;28;25195;-76
2023/11/27 07:05:39;;;;;;;49.22;44.50;;;;;;;;;;4985539;28;25144;-78
2023/11/27 07:08:05;;;;;;;49.03;44.22;;;;;;;;;;4982340;28;25142;-77
2023/11/27 07:10:32;;;;;;;49.60;45.05;;;;;;;;;;4986985;28;25058;-79
2023/11/27 07:12:58;;;;;;;49.75;44.95;;;;;;;;;;4981504;28;25068;-77
2023/11/27 07:15:24;;;;;;;46.78;42.45;;;;;;;;;;4986540;28;25133;-77
2023/11/27 07:17:50;;;;;;;52.08;46.60;;;;;;;;;;4984182;28;25048;-77
2023/11/27 07:20:19;;;;;;;47.28;42.78;;;;;;;;;;4982355;28;25091;-78
2023/11/27 07:22:49;;;;;;;50.35;44.85;;;;;;;;;;4984917;28;25088;-77
2023/11/27 07:25:15;;;;;;;49.40;44.65;;;;;;;;;;4986682;28;25051;-78
2023/11/27 07:27:45;;;;;;;45.67;41.33;;;;;;;;;;4984099;28;25042;-78
2023/11/27 07:30:11;;;;;;;43.45;39.65;;;;;;;;;;4985883;28;25074;-78
2023/11/27 07:32:37;;;;;;;49.58;44.33;;;;;;;;;;4982750;28;25058;-78
2023/11/27 07:35:04;;;;;;;54.75;49.10;;;;;;;;;;4991058;28;25065;-78
2023/11/27 07:37:30;;;;;;;45.80;41.38;;;;;;;;;;4994148;28;25139;-76
2023/11/27 07:39:56;;;;;;;53.40;48.13;;;;;;;;;;4991694;28;25089;-77
2023/11/27 07:42:22;;;;;;;47.15;42.72;;;;;;;;;;4992592;28;25130;-78
2023/11/27 07:44:48;;;;;;;50.72;45.75;;;;;;;;;;4988574;28;25099;-78
2023/11/27 07:47:14;;;;;;;49.88;44.50;;;;;;;;;;4989078;28;25065;-77
2023/11/27 07:49:40;;;;;;;53.28;48.08;;;;;;;;;;4987501;28;25069;-77
2023/11/27 07:52:06;;;;;;;46.20;41.72;;;;;;;;;;4988501;28;25125;-77
2023/11/27 07:54:32;;;;;;;50.13;45.20;;;;;;;;;;4984501;28;25069;-78
2023/11/27 07:56:58;;;;;;;52.10;46.67;;;;;;;;;;4992271;28;25069;-76
2023/11/27 07:59:25;;;;;;;47.65;42.92;;;;;;;;;;4989418;28;25054;-78
2023/11/27 08:01:52;;;;;;;51.10;45.35;;;;;;;;;;4992871;28;25064;-77
2023/11/27 08:04:18;;;;;;;47.92;42.85;;;;;;;;;;4997994;28;25042;-78
2023/11/27 08:06:44;;;;;;;53.28;47.83;;;;;;;;;;4997697;28;25066;-78
2023/11/27 08:09:11;;;;;;;46.65;42.03;;;;;;;;;;4997779;28;25056;-79
2023/11/27 08:11:37;;;;;;;55.35;49.55;;;;;;;;;;5005224;28;25066;-80
2023/11/27 08:14:03;;;;;;;51.08;46.00;;;;;;;;;;5002501;28;25071;-78
2023/11/27 08:16:30;;;;;;;53.80;48.08;;;;;;;;;;4998932;28;25072;-78
2023/11/27 08:18:56;;;;;;;51.90;46.63;;;;;;;;;;4996432;28;25068;-78
2023/11/27 08:21:22;;;;;;;46.63;42.28;;;;;;;;;;4986999;28;25055;-78
2023/11/27 08:23:49;;;;;;;54.13;48.58;;;;;;;;;;4996181;28;25046;-78
2023/11/27 08:26:15;;;;;;;50.17;45.38;;;;;;;;;;4989845;28;25096;-78
2023/11/27 08:28:41;;;;;;;47.40;43.00;;;;;;;;;;4990894;28;25062;-78
2023/11/27 08:31:08;;;;;;;46.97;42.80;;;;;;;;;;4995309;28;25071;-79
2023/11/27 08:33:34;;;;;;;49.58;44.72;;;;;;;;;;4993394;28;25137;-78
2023/11/27 08:36:03;;;;;;;47.10;42.88;;;;;;;;;;4988608;28;25143;-77
2023/11/27 08:38:30;;;;;;;46.67;42.30;;;;;;;;;;4986681;28;25089;-77
2023/11/27 08:40:56;;;;;;;49.67;45.15;;;;;;;;;;4991281;28;25067;-77
2023/11/27 08:43:22;;;;;;;45.17;41.22;;;;;;;;;;4986387;28;25068;-77
2023/11/27 08:45:49;;;;;;;47.88;43.70;;;;;;;;;;4989631;28;25154;-78
2023/11/27 08:48:16;;;;;;;43.95;39.85;;;;;;;;;;4994605;28;25139;-78
2023/11/27 08:50:42;;;;;;;38.90;35.47;;;;;;;;;;4987764;28;25074;-79
2023/11/27 08:53:09;;;;;;;43.58;39.47;;;;;;;;;;4994610;28;25093;-79
2023/11/27 08:55:35;;;;;;;35.80;32.83;;;;;;;;;;4999630;28;25077;-79
2023/11/27 08:58:03;;;;;;;35.05;32.25;;;;;;;;;;5007100;28;25079;-78
2023/11/27 09:00:30;;;;;;;32.65;29.88;;;;;;;;;;4987826;28;25083;-80
2023/11/27 09:02:56;;;;;;;30.65;28.30;;;;;;;;;;4986877;28;25079;-78
2023/11/27 09:05:24;;;;;;;32.33;29.55;;;;;;;;;;4986703;28;25071;-78
2023/11/27 09:07:53;;;;;;;32.95;30.17;;;;;;;;;;4997568;28;25065;-79
2023/11/27 09:10:20;;;;;;;38.65;35.38;;;;;;;;;;4992964;28;25563;-78
2023/11/27 09:12:45;;;;;;;35.08;32.28;;;;;;;;;;4989806;28;25073;-78
2023/11/27 09:15:12;;;;;;;37.38;34.17;;;;;;;;;;4997651;28;25094;-78
2023/11/27 09:17:38;;;;;;;37.53;33.97;;;;;;;;;;4989860;28;25142;-78
2023/11/27 09:20:06;;;;;;;36.65;33.47;;;;;;;;;;4985752;28;25093;-79
2023/11/27 09:22:32;;;;;;;38.30;34.88;;;;;;;;;;4989855;28;25058;-78
2023/11/27 09:24:58;;;;;;;39.15;35.13;;;;;;;;;;4987276;28;25068;-79
2023/11/27 09:27:24;;;;;;;37.28;34.35;;;;;;;;;;4992023;28;25090;-77
2023/11/27 09:29:50;;;;;;;41.65;37.95;;;;;;;;;;4989786;28;25077;-80
2023/11/27 09:32:16;;;;;;;37.97;34.72;;;;;;;;;;4989220;28;25081;-77
2023/11/27 09:34:42;;;;;;;41.25;37.58;;;;;;;;;;4986364;28;25135;-79
2023/11/27 09:37:08;;;;;;;37.08;33.72;;;;;;;;;;4982340;28;25079;-78
2023/11/27 09:39:34;;;;;;;38.65;35.05;;;;;;;;;;5000436;28;25080;-77
2023/11/27 09:42:00;;;;;;;38.05;34.85;;;;;;;;;;4986235;28;25074;-77
2023/11/27 09:44:27;;;;;;;36.67;33.78;;;;;;;;;;4985955;28;25041;-78
2023/11/27 09:46:56;;;;;;;34.78;32.13;;;;;;;;;;4990484;28;25051;-77
2023/11/27 09:49:25;;;;;;;41.03;37.72;;;;;;;;;;4986254;28;25052;-78
2023/11/27 09:51:56;;;;;;;35.47;32.63;;;;;;;;;;4987780;28;25056;-79
2023/11/27 09:54:24;;;;;;;37.83;34.75;;;;;;;;;;4989278;28;25130;-78
2023/11/27 09:56:51;;;;;;;35.08;32.40;;;;;;;;;;4992316;28;25081;-78
2023/11/27 09:59:20;;;;;;;38.17;34.90;;;;;;;;;;4992030;28;25061;-78
2023/11/27 10:01:46;;;;;;;37.78;34.35;;;;;;;;;;4989773;28;25065;-78
2023/11/27 10:04:12;;;;;;;38.03;34.90;;;;;;;;;;4985101;28;25069;-79
2023/11/27 10:06:42;;;;;;;38.92;35.67;;;;;;;;;;4985636;28;25062;-77
2023/11/27 10:09:08;;;;;;;39.92;36.20;;;;;;;;;;4984181;28;25107;-78
2023/11/27 10:11:35;;;;;;;37.78;34.78;;;;;;;;;;4992494;28;25060;-78
2023/11/27 10:14:04;;;;;;;38.33;35.10;;;;;;;;;;4986152;28;25075;-78
2023/11/27 10:16:31;;;;;;;37.72;34.47;;;;;;;;;;4989609;28;25089;-79
2023/11/27 10:19:03;;;;;;;37.42;34.47;;;;;;;;;;4990060;28;25077;-80
2023/11/27 10:21:30;;;;;;;40.72;37.33;;;;;;;;;;4989435;28;25062;-78
2023/11/27 10:24:01;;;;;;;38.72;35.28;;;;;;;;;;4989072;28;25082;-79
2023/11/27 10:26:29;;;;;;;38.72;35.60;;;;;;;;;;4988067;28;25133;-78
2023/11/27 10:28:57;;;;;;;36.97;33.88;;;;;;;;;;4987197;28;25079;-77
2023/11/27 10:31:23;;;;;;;34.30;31.55;;;;;;;;;;4984914;28;25062;-79
2023/11/27 10:33:50;;;;;;;35.70;32.78;;;;;;;;;;4987214;28;25050;-78
2023/11/27 10:36:23;;;;;;;37.40;34.35;;;;;;;;;;4991506;28;25040;-80
2023/11/27 10:38:58;;;;;;;35.20;32.35;;;;;;;;;;4995253;28;25059;-79
2023/11/27 10:41:25;;;;;;;33.85;31.05;;;;;;;;;;4990882;28;25079;-79
2023/11/27 10:43:51;;;;;;;33.22;30.58;;;;;;;;;;4988033;28;25106;-77
2023/11/27 10:46:17;;;;;;;34.60;31.90;;;;;;;;;;4986792;28;25129;-76
2023/11/27 10:48:43;;;;;;;33.22;30.70;;;;;;;;;;4988810;28;25058;-78
2023/11/27 10:51:12;;;;;;;31.63;29.00;;;;;;;;;;4985160;28;25075;-78
2023/11/27 10:53:38;;;;;;;28.23;26.33;;;;;;;;;;4992785;28;25069;-78
2023/11/27 10:56:05;;;;;;;31.13;28.80;;;;;;;;;;4986188;28;25090;-79
2023/11/27 10:58:32;;;;;;;30.63;28.33;;;;;;;;;;4979809;28;25073;-79
2023/11/27 11:01:01;;;;;;;31.48;29.27;;;;;;;;;;4984909;28;25087;-78
2023/11/27 11:03:32;;;;;;;30.50;27.80;;;;;;;;;;4985810;28;25050;-79
2023/11/27 11:05:59;;;;;;;30.52;28.33;;;;;;;;;;4983972;28;25060;-78
2023/11/27 11:08:26;;;;;;;34.83;31.73;;;;;;;;;;4984689;28;25073;-78
2023/11/27 11:10:56;;;;;;;31.00;28.65;;;;;;;;;;4986438;28;25068;-78
2023/11/27 11:13:24;;;;;;;31.40;29.13;;;;;;;;;;4984929;28;25124;-77
2023/11/27 11:15:54;;;;;;;31.52;29.13;;;;;;;;;;4986491;28;25084;-78
2023/11/27 11:18:20;;;;;;;35.17;32.42;;;;;;;;;;4970509;28;25080;-79
2023/11/27 11:20:55;;;;;;;33.30;30.63;;;;;;;;;;4990922;28;25065;-78
2023/11/27 11:23:27;;;;;;;34.22;31.35;;;;;;;;;;4985883;28;25062;-79
2023/11/27 11:26:21;;;;;;;32.75;30.13;;;;;;;;;;4988401;28;25109;-79
2023/11/27 11:28:49;;;;;;;34.07;31.17;;;;;;;;;;4982547;28;25078;-78
2023/11/27 11:31:15;;;;;;;34.35;31.65;;;;;;;;;;4986183;28;25154;-78
2023/11/27 11:33:47;;;;;;;34.15;31.45;;;;;;;;;;4990044;28;25115;-78
2023/11/27 11:36:14;;;;;;;35.08;32.30;;;;;;;;;;4989896;28;25055;-77
2023/11/27 11:38:48;;;;;;;36.10;33.17;;;;;;;;;;4993677;28;25063;-80
2023/11/27 11:41:17;;;;;;;40.08;36.60;;;;;;;;;;4997297;28;25091;-76
2023/11/27 11:43:47;;;;;;;35.15;32.17;;;;;;;;;;4997397;28;25112;-77
2023/11/27 11:46:18;;;;;;;40.22;36.88;;;;;;;;;;4997002;28;25047;-78
2023/11/27 11:48:52;;;;;;;35.85;32.95;;;;;;;;;;5001075;28;25083;-77
2023/11/27 11:51:20;;;;;;;38.78;35.42;;;;;;;;;;4995313;28;25099;-78
2023/11/27 11:53:51;;;;;;;37.53;34.45;;;;;;;;;;4994012;28;25086;-78
2023/11/27 11:56:22;;;;;;;40.05;36.63;;;;;;;;;;4993696;28;25052;-79
2023/11/27 11:58:59;;;;;;;40.25;36.95;;;;;;;;;;4991825;28;25077;-79
2023/11/27 12:01:34;;;;;;;42.05;38.20;;;;;;;;;;4979508;28;25088;-77
2023/11/27 12:04:07;;;;;;;41.22;37.40;;;;;;;;;;4981016;28;25047;-79
2023/11/27 12:06:34;;;;;;;41.55;37.90;;;;;;;;;;4979116;28;25083;-78
2023/11/27 12:09:00;;;;;;;41.00;37.38;;;;;;;;;;4986333;28;25057;-79
2023/11/27 12:11:31;;;;;;;37.88;34.72;;;;;;;;;;4991441;28;25073;-78
2023/11/27 12:13:58;;;;;;;36.97;34.10;;;;;;;;;;4987546;28;25070;-78
2023/11/27 12:16:24;;;;;;;38.60;35.40;;;;;;;;;;4985804;28;25173;-76
2023/11/27 12:18:54;;;;;;;38.45;35.33;;;;;;;;;;4992183;28;25059;-78
2023/11/27 12:21:22;;;;;;;34.25;31.73;;;;;;;;;;4988009;28;25074;-78
2023/11/27 12:23:51;;;;;;;42.03;38.30;;;;;;;;;;4986888;28;25073;-77
2023/11/27 12:26:24;;;;;;;36.33;33.45;;;;;;;;;;4989528;28;25085;-77
2023/11/27 12:28:50;;;;;;;;;;;;;;;;;;4990605;28;25069;-78
2023/11/27 12:31:16;;;;;;;30.30;28.00;;;;;;;;;;4987768;28;24073;-78
2023/11/27 12:33:46;;;;;;;34.05;31.20;;;;;;;;;;4985065;28;25049;-77
2023/11/27 12:36:12;;;;;;;35.38;32.38;;;;;;;;;;4983893;28;25108;-77
2023/11/27 12:38:40;;;;;;;32.97;30.48;;;;;;;;;;4986234;28;25100;-77
2023/11/27 12:41:09;;;;;;;34.65;31.70;;;;;;;;;;4984293;28;25081;-78
2023/11/27 12:43:36;;;;;;;29.58;27.40;;;;;;;;;;4981370;28;25138;-77
2023/11/27 12:46:05;;;;;;;38.45;35.33;;;;;;;;;;4984563;28;25079;-77
2023/11/27 12:48:34;;;;;;;33.90;31.30;;;;;;;;;;4989929;28;25092;-78
2023/11/27 12:51:01;;;;;;;35.35;32.70;;;;;;;;;;4991936;28;25051;-76
2023/11/27 12:53:27;;;;;;;35.80;33.10;;;;;;;;;;4992157;28;25046;-77
2023/11/27 12:55:54;;;;;;;38.20;34.90;;;;;;;;;;4994854;28;25139;-77
2023/11/27 12:58:23;;;;;;;35.15;32.42;;;;;;;;;;4986581;28;25100;-78
2023/11/27 13:00:51;;;;;;;37.25;34.00;;;;;;;;;;4985334;28;25068;-78
2023/11/27 13:03:21;;;;;;;39.15;35.85;;;;;;;;;;4986631;28;25020;-77
2023/11/27 13:05:52;;;;;;;38.92;35.72;;;;;;;;;;4982809;28;25071;-77
2023/11/27 13:08:24;;;;;;;42.85;39.05;;;;;;;;;;4989022;28;25091;-75
2023/11/27 13:10:51;;;;;;;43.00;38.50;;;;;;;;;;4989843;28;25139;-73
2023/11/27 13:13:21;;;;;;;40.10;36.65;;;;;;;;;;4982305;28;25072;-75
2023/11/27 13:15:47;;;;;;;43.95;40.15;;;;;;;;;;4989484;28;25130;-77
2023/11/27 13:18:16;;;;;;;45.35;41.15;;;;;;;;;;4987451;28;25059;-76
2023/11/27 13:20:46;;;;;;;42.17;38.67;;;;;;;;;;4988348;28;25102;-76
2023/11/27 13:23:12;;;;;;;40.33;37.00;;;;;;;;;;4987920;28;25104;-74
2023/11/27 13:25:38;;;;;;;49.92;44.92;;;;;;;;;;4988994;28;25075;-76
2023/11/27 13:28:08;;;;;;;34.63;31.92;;;;;;;;;;4984032;28;25088;-76
2023/11/27 13:30:35;;;;;;;38.28;35.22;;;;;;;;;;4984877;28;25052;-76
2023/11/27 13:33:09;;;;;;;44.22;40.38;;;;;;;;;;4981805;28;25065;-76
2023/11/27 13:35:36;;;;;;;46.90;42.72;;;;;;;;;;4987134;28;25080;-77
2023/11/27 13:38:04;;;;;;;44.38;39.97;;;;;;;;;;4986712;28;25063;-74
2023/11/27 13:40:35;;;;;;;42.30;38.60;;;;;;;;;;4983130;28;25135;-77
2023/11/27 13:43:07;;;;;;;46.65;42.30;;;;;;;;;;4987180;28;25130;-75
2023/11/27 13:45:33;;;;;;;36.65;33.55;;;;;;;;;;4982188;28;25075;-79
2023/11/27 13:48:02;;;;;;;41.30;38.00;;;;;;;;;;4984110;28;25126;-76
2023/11/27 13:50:41;;;;;;;42.30;38.75;;;;;;;;;;4984097;28;25100;-77
2023/11/27 13:53:16;;;;;;;32.50;30.20;;;;;;;;;;4982054;28;25078;-76
2023/11/27 13:55:46;;;;;;;43.35;39.58;;;;;;;;;;4984991;28;25091;-75
2023/11/27 13:58:12;;;;;;;44.92;40.72;;;;;;;;;;4987252;28;25063;-75
2023/11/27 14:00:50;;;;;;;38.80;35.40;;;;;;;;;;4989765;28;25141;-79
2023/11/27 14:03:25;;;;;;;39.35;35.92;;;;;;;;;;4986509;28;25137;-76
2023/11/27 14:05:55;;;;;;;40.70;36.88;;;;;;;;;;4986054;28;25133;-76
2023/11/27 14:08:29;;;;;;;42.25;38.42;;;;;;;;;;4987881;28;25105;-76
2023/11/27 14:13:40;;;;;;;40.63;37.28;;;;;;;;;;4995606;28;25075;-73
2023/11/27 14:16:13;;;;;;;42.45;38.65;;;;;;;;;;4992889;28;25100;-75
2023/11/27 14:18:50;;;;;;;;;;;;;;;;;;4985733;28;25077;-76
2023/11/27 14:24:12;;;;;;;38.78;35.67;;;;;;;;;;4999031;28;25052;-75